createdAt,value
2022-08-05T00:00:16.193Z,17.46
2022-08-05T00:02:50.882Z,17.31
2022-08-05T00:06:02.555Z,17.19
2022-08-05T00:08:33.036Z,17.15
2022-08-05T00:11:00.998Z,17.08
2022-08-05T00:13:38.684Z,17.05
2022-08-05T00:16:12.285Z,17.12
2022-08-05T00:18:42.099Z,17.14
2022-08-05T00:21:10.300Z,17.20
2022-08-05T00:23:45.862Z,17.23
2022-08-05T00:26:16.942Z,17.19
2022-08-05T00:28:45.756Z,17.21
2022-08-05T00:31:13.884Z,17.22
2022-08-05T00:34:53.219Z,17.13
2022-08-05T00:37:10.601Z,17.04
2022-08-05T00:39:17.090Z,17.08
2022-08-05T00:41:55.314Z,17.03
2022-08-05T00:44:30.921Z,16.95
2022-08-05T00:47:03.684Z,16.94
2022-08-05T00:49:49.352Z,16.95
2022-08-05T00:52:28.350Z,16.90
2022-08-05T00:54:56.959Z,16.88
2022-08-05T00:57:31.838Z,16.78
2022-08-05T01:00:15.526Z,16.66
2022-08-05T01:02:44.876Z,16.60
2022-08-05T01:05:13.116Z,16.56
2022-08-05T01:08:40.494Z,16.49
2022-08-05T01:10:32.894Z,16.46
2022-08-05T01:13:12.740Z,16.55
2022-08-05T01:15:47.794Z,16.55
2022-08-05T01:18:20.468Z,16.38
2022-08-05T01:20:55.268Z,16.47
2022-08-05T01:23:35.778Z,16.48
2022-08-05T01:26:13.757Z,16.47
2022-08-05T01:28:46.525Z,16.41
2022-08-05T01:31:20.863Z,16.44
2022-08-05T01:33:51.994Z,16.49
2022-08-05T01:36:28.448Z,16.45
2022-08-05T01:38:56.843Z,16.31
2022-08-05T01:41:31.560Z,16.31
2022-08-05T01:44:02.839Z,16.39
2022-08-05T01:46:42.019Z,16.41
2022-08-05T01:49:24.011Z,16.31
2022-08-05T01:51:56.005Z,16.18
2022-08-05T01:54:27.324Z,16.16
2022-08-05T01:58:09.552Z,16.23
2022-08-05T01:59:48.012Z,16.25
2022-08-05T02:02:16.610Z,16.27
2022-08-05T02:04:46.295Z,16.21
2022-08-05T02:07:21.675Z,16.27
2022-08-05T02:09:50.414Z,16.01
2022-08-05T02:12:23.656Z,15.90
2022-08-05T02:15:03.160Z,15.85
2022-08-05T02:18:32.446Z,15.92
2022-08-05T02:20:23.799Z,15.83
2022-08-05T02:22:58.158Z,15.77
2022-08-05T02:25:33.415Z,15.71
2022-08-05T02:28:08.582Z,15.83
2022-08-05T02:30:51.730Z,15.91
2022-08-05T02:33:24.161Z,16.00
2022-08-05T02:35:58.879Z,15.97
2022-08-05T02:38:35.210Z,15.92
2022-08-05T02:41:06.362Z,15.91
2022-08-05T02:44:06.320Z,16.02
2022-08-05T02:46:35.469Z,16.07
2022-08-05T02:49:03.939Z,16.09
2022-08-05T02:52:02.745Z,16.03
2022-08-05T02:54:35.026Z,16.05
2022-08-05T02:57:09.922Z,16.05
2022-08-05T02:59:50.169Z,16.12
2022-08-05T03:02:21.429Z,15.95
2022-08-05T03:04:53.310Z,16.01
2022-08-05T03:08:00.612Z,16.01
2022-08-05T03:10:10.632Z,16.07
2022-08-05T03:12:41.217Z,16.11
2022-08-05T03:15:12.247Z,15.94
2022-08-05T03:17:42.206Z,15.97
2022-08-05T03:20:13.318Z,15.94
2022-08-05T03:22:44.213Z,16.00
2022-08-05T03:26:03.513Z,16.06
2022-08-05T03:28:08.683Z,16.15
2022-08-05T03:30:38.354Z,16.21
2022-08-05T03:33:10.504Z,16.25
2022-08-05T03:35:41.270Z,16.28
2022-08-05T03:38:11.480Z,16.33
2022-08-05T03:40:41.393Z,16.40
2022-08-05T03:43:59.273Z,16.40
2022-08-05T03:46:01.438Z,16.44
2022-08-05T03:48:35.637Z,16.53
2022-08-05T03:52:50.494Z,16.60
2022-08-05T03:55:50.588Z,16.68
2022-08-05T03:56:50.229Z,16.78
2022-08-05T03:59:24.566Z,16.87
2022-08-05T04:01:53.124Z,16.96
2022-08-05T04:04:28.183Z,17.04
2022-08-05T04:06:56.131Z,17.06
2022-08-05T04:09:26.285Z,17.17
2022-08-05T04:11:56.698Z,17.23
2022-08-05T04:14:30.495Z,17.34
2022-08-05T04:17:00.102Z,17.39
2022-08-05T04:19:30.684Z,17.49
2022-08-05T04:22:10.358Z,17.57
2022-08-05T04:24:44.448Z,17.64
2022-08-05T04:27:15.298Z,17.71
2022-08-05T04:29:44.038Z,17.75
2022-08-05T04:32:13.015Z,17.81
2022-08-05T04:34:43.308Z,17.87
2022-08-05T04:37:11.356Z,17.89
2022-08-05T04:39:40.078Z,18.02
2022-08-05T04:42:09.097Z,18.09
2022-08-05T04:44:36.929Z,18.18
2022-08-05T04:47:09.913Z,18.28
2022-08-05T04:50:02.685Z,18.38
2022-08-05T04:52:28.359Z,18.48
2022-08-05T04:54:57.385Z,18.60
2022-08-05T04:57:28.773Z,18.69
2022-08-05T04:59:58.751Z,18.79
2022-08-05T05:02:41.182Z,18.92
2022-08-05T05:05:26.117Z,19.02
2022-08-05T05:08:01.573Z,19.07
2022-08-05T05:10:30.347Z,19.17
2022-08-05T05:12:58.522Z,19.23
2022-08-05T05:15:59.317Z,19.37
2022-08-05T05:18:15.228Z,19.53
2022-08-05T05:20:56.525Z,19.62
2022-08-05T05:23:27.767Z,19.80
2022-08-05T05:26:15.478Z,19.94
2022-08-05T05:28:45.125Z,20.06
2022-08-05T05:31:13.447Z,20.13
2022-08-05T05:33:59.462Z,20.23
2022-08-05T05:36:28.621Z,20.35
2022-08-05T05:38:59.355Z,20.48
2022-08-05T05:41:40.459Z,20.59
2022-08-05T05:44:36.922Z,20.79
2022-08-05T05:46:57.866Z,20.89
2022-08-05T05:49:25.931Z,21.05
2022-08-05T05:51:53.697Z,21.11
2022-08-05T05:54:49.789Z,21.21
2022-08-05T05:57:13.829Z,21.32
2022-08-05T05:59:46.807Z,21.48
2022-08-05T06:02:16.595Z,21.57
2022-08-05T06:04:47.546Z,21.67
2022-08-05T06:07:16.990Z,21.76
2022-08-05T06:10:04.550Z,21.82
2022-08-05T06:12:34.805Z,21.91
2022-08-05T06:15:16.439Z,22.00
2022-08-05T06:17:53.503Z,22.10
2022-08-05T06:20:23.020Z,22.17
2022-08-05T06:22:50.924Z,22.33
2022-08-05T06:25:24.558Z,22.42
2022-08-05T06:28:11.505Z,22.59
2022-08-05T06:30:48.361Z,22.72
2022-08-05T06:33:19.260Z,22.79
2022-08-05T06:36:07.719Z,22.85
2022-08-05T06:38:39.527Z,22.96
2022-08-05T06:41:16.246Z,23.13
2022-08-05T06:43:58.840Z,23.10
2022-08-05T06:46:29.698Z,23.15
2022-08-05T06:48:59.277Z,23.29
2022-08-05T06:51:30.014Z,23.38
2022-08-05T06:53:59.069Z,23.51
2022-08-05T06:56:28.235Z,23.58
2022-08-05T06:58:56.096Z,23.61
2022-08-05T07:01:27.623Z,23.75
2022-08-05T07:04:00.548Z,23.85
2022-08-05T07:06:28.854Z,24.02
2022-08-05T07:08:56.553Z,24.11
2022-08-05T07:11:30.878Z,24.21
2022-08-05T07:14:20.492Z,24.31
2022-08-05T07:18:08.338Z,24.46
2022-08-05T07:22:37.136Z,24.76
2022-08-05T07:25:23.058Z,24.84
2022-08-05T07:28:02.343Z,24.83
2022-08-05T07:30:38.339Z,24.91
2022-08-05T07:33:09.206Z,25.04
2022-08-05T07:36:04.594Z,25.13
2022-08-05T07:38:34.237Z,25.23
2022-08-05T07:42:07.128Z,25.28
2022-08-05T07:43:56.172Z,25.25
2022-08-05T07:46:26.058Z,25.32
2022-08-05T07:49:03.506Z,25.45
2022-08-05T07:51:40.611Z,25.62
2022-08-05T07:54:10.532Z,25.75
2022-08-05T07:57:02.822Z,25.75
2022-08-05T07:59:38.341Z,25.82
2022-08-05T08:02:15.492Z,25.75
2022-08-05T08:04:46.097Z,25.79
2022-08-05T08:07:14.173Z,25.78
2022-08-05T08:09:44.603Z,25.88
2022-08-05T08:12:35.237Z,25.88
2022-08-05T08:15:04.485Z,25.94
2022-08-05T08:17:32.898Z,26.10
2022-08-05T08:20:21.617Z,26.29
2022-08-05T08:22:52.735Z,26.37
2022-08-05T08:25:26.794Z,26.62
2022-08-05T08:28:17.995Z,26.67
2022-08-05T08:30:49.836Z,26.66
2022-08-05T08:33:19.101Z,26.59
2022-08-05T08:35:53.078Z,26.54
2022-08-05T08:38:35.950Z,26.52
2022-08-05T08:41:08.276Z,26.38
2022-08-05T08:45:16.345Z,26.46
2022-08-05T08:46:28.011Z,26.72
2022-08-05T08:49:07.841Z,26.76
2022-08-05T08:52:03.337Z,26.91
2022-08-05T08:54:36.275Z,27.00
2022-08-05T08:57:11.474Z,27.01
2022-08-05T08:59:41.873Z,27.11
2022-08-05T09:02:19.414Z,27.15
2022-08-05T09:05:16.161Z,27.31
2022-08-05T09:07:39.996Z,27.31
2022-08-05T09:10:27.743Z,27.43
2022-08-05T09:13:04.463Z,27.30
2022-08-05T09:15:36.775Z,27.50
2022-08-05T09:18:08.807Z,27.43
2022-08-05T09:20:37.653Z,27.66
2022-08-05T09:23:19.850Z,27.74
2022-08-05T09:26:01.205Z,27.76
2022-08-05T09:28:33.784Z,27.60
2022-08-05T09:31:18.198Z,27.59
2022-08-05T09:33:55.355Z,27.75
2022-08-05T09:36:27.934Z,27.85
2022-08-05T09:39:18.575Z,27.67
2022-08-05T09:41:58.443Z,27.68
2022-08-05T09:44:37.800Z,27.94
2022-08-05T09:47:12.423Z,27.92
2022-08-05T09:50:01.336Z,27.90
2022-08-05T09:52:32.127Z,28.10
2022-08-05T09:55:55.211Z,28.10
2022-08-05T09:57:49.584Z,28.06
2022-08-05T10:00:25.442Z,28.04
2022-08-05T10:02:54.813Z,28.14
2022-08-05T10:05:29.067Z,28.23
2022-08-05T10:08:34.603Z,27.99
2022-08-05T10:10:54.252Z,28.21
2022-08-05T10:13:43.872Z,28.45
2022-08-05T10:16:30.996Z,28.56
2022-08-05T10:19:00.327Z,28.64
2022-08-05T10:21:35.393Z,28.54
2022-08-05T10:24:10.702Z,28.67
2022-08-05T10:26:51.358Z,28.45
2022-08-05T10:29:24.122Z,28.45
2022-08-05T10:32:52.051Z,28.62
2022-08-05T10:35:00.813Z,28.61
2022-08-05T10:37:40.252Z,28.74
2022-08-05T10:40:20.424Z,28.90
2022-08-05T10:42:59.841Z,29.01
2022-08-05T10:45:39.901Z,28.93
2022-08-05T10:48:38.390Z,28.92
2022-08-05T10:51:22.891Z,28.89
2022-08-05T10:54:00.964Z,28.89
2022-08-05T10:56:31.807Z,28.98
2022-08-05T10:59:12.465Z,29.21
2022-08-05T11:02:08.716Z,29.07
2022-08-05T11:04:49.123Z,29.22
2022-08-05T11:07:33.247Z,29.39
2022-08-05T11:10:22.686Z,29.46
2022-08-05T11:12:56.583Z,29.57
2022-08-05T11:16:01.194Z,29.40
2022-08-05T11:18:29.713Z,29.30
2022-08-05T11:21:02.216Z,29.01
2022-08-05T11:24:04.923Z,29.08
2022-08-05T11:26:38.875Z,29.30
2022-08-05T11:29:13.537Z,29.44
2022-08-05T11:31:58.536Z,29.47
2022-08-05T11:34:52.187Z,29.58
2022-08-05T11:38:31.028Z,29.88
2022-08-05T11:41:14.019Z,29.77
2022-08-05T11:43:58.605Z,29.66
2022-08-05T11:47:09.522Z,29.57
2022-08-05T11:49:54.453Z,29.70
2022-08-05T11:52:28.994Z,29.70
2022-08-05T11:54:58.268Z,29.59
2022-08-05T11:57:30.697Z,29.65
2022-08-05T12:00:09.966Z,29.74
2022-08-05T12:02:40.184Z,29.84
2022-08-05T12:05:18.252Z,29.55
2022-08-05T12:08:07.861Z,29.66
2022-08-05T12:10:45.584Z,29.59
2022-08-05T12:13:47.578Z,29.80
2022-08-05T12:16:15.098Z,30.03
2022-08-05T12:18:49.608Z,29.92
2022-08-05T12:21:24.027Z,29.88
2022-08-05T12:24:05.130Z,29.94
2022-08-05T12:26:35.539Z,30.00
2022-08-05T12:29:09.485Z,30.11
2022-08-05T12:31:53.094Z,30.04
2022-08-05T12:34:24.065Z,29.93
2022-08-05T12:36:54.539Z,30.08
2022-08-05T12:39:28.106Z,30.01
2022-08-05T12:42:09.917Z,29.98
2022-08-05T12:44:43.236Z,30.23
2022-08-05T12:47:17.082Z,30.26
2022-08-05T12:50:02.338Z,30.30
2022-08-05T12:52:39.315Z,30.25
2022-08-05T12:55:22.108Z,30.33
2022-08-05T12:58:50.579Z,30.24
2022-08-05T13:02:04.441Z,30.11
2022-08-05T13:03:33.146Z,30.30
2022-08-05T13:06:01.428Z,30.64
2022-08-05T13:08:30.322Z,30.40
2022-08-05T13:11:01.324Z,30.40
2022-08-05T13:14:06.171Z,30.43
2022-08-05T13:16:17.392Z,30.54
2022-08-05T13:18:57.702Z,30.76
2022-08-05T13:21:28.396Z,31.09
2022-08-05T13:24:08.958Z,30.96
2022-08-05T13:26:37.299Z,31.32
2022-08-05T13:29:05.582Z,31.69
2022-08-05T13:32:03.846Z,32.08
2022-08-05T13:34:26.056Z,32.40
2022-08-05T13:36:54.411Z,32.51
2022-08-05T13:40:13.099Z,32.35
2022-08-05T13:42:14.670Z,32.55
2022-08-05T13:44:45.307Z,32.73
2022-08-05T13:48:08.325Z,32.62
2022-08-05T13:50:09.517Z,32.53
2022-08-05T13:52:40.207Z,32.54
2022-08-05T13:55:11.907Z,32.92
2022-08-05T13:57:59.578Z,32.91
2022-08-05T14:00:28.046Z,33.23
2022-08-05T14:02:57.380Z,33.05
2022-08-05T14:05:48.574Z,33.45
2022-08-05T14:08:21.462Z,33.51
2022-08-05T14:11:03.249Z,34.02
2022-08-05T14:13:43.747Z,33.87
2022-08-05T14:16:17.263Z,34.10
2022-08-05T14:18:47.072Z,34.24
2022-08-05T14:22:07.310Z,33.52
2022-08-05T14:24:04.987Z,32.69
2022-08-05T14:26:38.696Z,32.77
2022-08-05T14:29:16.236Z,32.57
2022-08-05T14:32:03.085Z,32.67
2022-08-05T14:34:35.353Z,32.68
2022-08-05T14:37:05.984Z,33.03
2022-08-05T14:39:50.230Z,33.25
2022-08-05T14:42:22.943Z,33.03
2022-08-05T14:44:52.956Z,32.90
2022-08-05T14:48:03.774Z,33.56
2022-08-05T14:50:18.360Z,33.57
2022-08-05T14:52:58.285Z,33.72
2022-08-05T14:55:39.315Z,34.01
2022-08-05T14:58:11.915Z,33.97
2022-08-05T15:00:58.430Z,33.93
2022-08-05T15:03:33.788Z,33.32
2022-08-05T15:06:07.576Z,32.91
2022-08-05T15:09:01.423Z,33.15
2022-08-05T15:11:50.874Z,33.31
2022-08-05T15:14:34.222Z,33.24
2022-08-05T15:17:05.354Z,33.14
2022-08-05T15:19:37.841Z,33.41
2022-08-05T15:22:08.746Z,32.92
2022-08-05T15:24:39.686Z,33.09
2022-08-05T15:27:09.116Z,33.22
2022-08-05T15:29:41.669Z,33.25
2022-08-05T15:32:10.588Z,33.05
2022-08-05T15:34:38.429Z,33.18
2022-08-05T15:37:24.420Z,33.04
2022-08-05T15:41:01.708Z,32.88
2022-08-05T15:42:53.690Z,32.68
2022-08-05T15:45:38.797Z,33.13
2022-08-05T15:48:07.089Z,33.26
2022-08-05T15:50:35.212Z,33.51
2022-08-05T15:53:05.818Z,33.38
2022-08-05T15:56:04.129Z,33.49
2022-08-05T15:58:26.300Z,32.94
2022-08-05T16:01:11.594Z,32.75
2022-08-05T16:03:42.451Z,33.17
2022-08-05T16:06:11.371Z,33.33
2022-08-05T16:08:40.100Z,32.84
2022-08-05T16:11:10.643Z,32.81
2022-08-05T16:13:38.643Z,32.57
2022-08-05T16:16:07.528Z,32.38
2022-08-05T16:18:51.951Z,32.46
2022-08-05T16:21:59.347Z,32.48
2022-08-05T16:24:12.763Z,32.26
2022-08-05T16:27:02.136Z,32.10
2022-08-05T16:29:31.367Z,32.06
2022-08-05T16:32:06.411Z,31.90
2022-08-05T16:34:34.497Z,32.03
2022-08-05T16:37:02.304Z,31.93
2022-08-05T16:40:04.841Z,31.87
2022-08-05T16:42:36.818Z,31.94
2022-08-05T16:45:06.206Z,32.14
2022-08-05T16:47:57.329Z,32.25
2022-08-05T16:50:27.619Z,32.24
2022-08-05T16:52:56.573Z,32.16
2022-08-05T16:55:24.648Z,32.12
2022-08-05T16:58:00.194Z,32.11
2022-08-05T17:00:34.814Z,32.04
2022-08-05T17:03:15.290Z,31.69
2022-08-05T17:05:53.598Z,31.49
2022-08-05T17:08:36.227Z,31.30
2022-08-05T17:11:12.768Z,31.20
2022-08-05T17:13:46.593Z,31.15
2022-08-05T17:16:35.869Z,30.98
2022-08-05T17:19:02.670Z,30.65
2022-08-05T17:21:35.465Z,30.55
2022-08-05T17:24:19.600Z,30.33
2022-08-05T17:26:52.712Z,30.16
2022-08-05T17:29:33.468Z,30.13
2022-08-05T17:32:08.633Z,30.01
2022-08-05T17:34:40.140Z,29.66
2022-08-05T17:37:16.943Z,29.50
2022-08-05T17:39:59.970Z,29.38
2022-08-05T17:42:32.265Z,29.31
2022-08-05T17:45:09.807Z,29.14
2022-08-05T17:47:51.339Z,28.77
2022-08-05T17:50:22.801Z,28.66
2022-08-05T17:52:58.903Z,28.65
2022-08-05T17:55:27.310Z,28.63
2022-08-05T17:58:02.182Z,28.41
2022-08-05T18:00:32.776Z,28.26
2022-08-05T18:03:00.711Z,27.99
2022-08-05T18:05:28.528Z,27.99
2022-08-05T18:08:03.722Z,27.88
2022-08-05T18:10:33.628Z,27.67
2022-08-05T18:13:01.897Z,27.34
2022-08-05T18:15:34.288Z,27.32
2022-08-05T18:18:05.763Z,27.24
2022-08-05T18:20:39.246Z,27.16
2022-08-05T18:23:11.442Z,26.92
2022-08-05T18:25:44.944Z,26.88
2022-08-05T18:28:16.493Z,26.70
2022-08-05T18:30:45.927Z,26.55
2022-08-05T18:33:23.157Z,26.52
2022-08-05T18:36:03.249Z,26.53
2022-08-05T18:38:32.858Z,26.39
2022-08-05T18:41:55.076Z,26.26
2022-08-05T18:43:48.739Z,26.05
2022-08-05T18:46:20.097Z,25.89
2022-08-05T18:48:52.115Z,25.78
2022-08-05T18:52:04.148Z,25.64
2022-08-05T18:54:25.862Z,25.43
2022-08-05T18:56:55.386Z,25.37
2022-08-05T18:59:44.408Z,25.29
2022-08-05T19:02:27.985Z,25.20
2022-08-05T19:05:02.932Z,24.99
2022-08-05T19:07:46.151Z,24.64
2022-08-05T19:10:15.154Z,24.55
2022-08-05T19:12:43.461Z,24.57
2022-08-05T19:15:56.852Z,24.55
2022-08-05T19:18:09.365Z,24.39
2022-08-05T19:20:41.367Z,24.24
2022-08-05T19:23:22.482Z,24.17
2022-08-05T19:26:01.898Z,24.08
2022-08-05T19:28:30.999Z,24.01
2022-08-05T19:31:01.053Z,23.94
2022-08-05T19:33:36.298Z,23.86
2022-08-05T19:36:06.603Z,23.50
2022-08-05T19:38:35.630Z,23.34
2022-08-05T19:41:07.251Z,23.36
2022-08-05T19:44:05.295Z,23.37
2022-08-05T19:46:29.130Z,23.24
2022-08-05T19:49:01.071Z,23.12
2022-08-05T19:52:09.100Z,22.96
2022-08-05T19:54:25.579Z,22.95
2022-08-05T19:56:59.697Z,22.99
2022-08-05T20:00:00.489Z,22.88
2022-08-05T20:02:19.384Z,22.73
2022-08-05T20:04:48.777Z,22.71
2022-08-05T20:07:46.721Z,22.68
2022-08-05T20:10:14.113Z,22.53
2022-08-05T20:12:48.371Z,22.31
2022-08-05T20:15:48.516Z,22.28
2022-08-05T20:18:33.606Z,22.13
2022-08-05T20:21:00.146Z,22.09
2022-08-05T20:23:40.206Z,22.07
2022-08-05T20:26:17.369Z,22.05
2022-08-05T20:28:46.301Z,22.04
2022-08-05T20:31:16.606Z,21.92
2022-08-05T20:33:44.997Z,21.71
2022-08-05T20:36:16.387Z,21.61
2022-08-05T20:38:54.114Z,21.75
2022-08-05T20:41:26.947Z,21.81
2022-08-05T20:43:58.812Z,21.48
2022-08-05T20:46:30.665Z,21.47
2022-08-05T20:48:59.664Z,21.46
2022-08-05T20:51:29.052Z,21.59
2022-08-05T20:53:57.268Z,21.66
2022-08-05T20:56:34.070Z,21.71
2022-08-05T20:59:14.168Z,21.64
2022-08-05T21:01:47.722Z,21.63
2022-08-05T21:04:19.080Z,21.57
2022-08-05T21:06:49.187Z,21.38
2022-08-05T21:09:19.463Z,21.36
2022-08-05T21:12:10.553Z,21.42
2022-08-05T21:14:35.897Z,21.50
2022-08-05T21:17:05.758Z,21.42
2022-08-05T21:19:46.465Z,21.24
2022-08-05T21:22:17.681Z,21.27
2022-08-05T21:24:51.672Z,21.36
2022-08-05T21:27:20.679Z,21.31
2022-08-05T21:29:56.041Z,21.25
2022-08-05T21:32:27.129Z,20.93
2022-08-05T21:35:17.385Z,21.06
2022-08-05T21:37:47.112Z,20.97
2022-08-05T21:40:21.156Z,20.93
2022-08-05T21:42:51.652Z,21.10
2022-08-05T21:45:25.166Z,21.15
2022-08-05T21:48:09.505Z,21.02
2022-08-05T21:50:38.067Z,21.00
2022-08-05T21:53:16.694Z,21.09
2022-08-05T21:56:05.321Z,20.93
2022-08-05T21:58:36.732Z,20.77
2022-08-05T22:01:10.791Z,20.62
2022-08-05T22:03:52.405Z,20.49
2022-08-05T22:06:37.060Z,20.59
2022-08-05T22:09:15.145Z,20.50
2022-08-05T22:11:48.664Z,20.53
2022-08-05T22:14:33.443Z,20.50
2022-08-05T22:17:07.002Z,20.54
2022-08-05T22:20:02.541Z,20.55
2022-08-05T22:22:27.117Z,20.43
2022-08-05T22:25:21.152Z,20.40
2022-08-05T22:28:10.958Z,20.55
2022-08-05T22:30:55.818Z,20.48
2022-08-05T22:33:57.820Z,20.35
2022-08-05T22:36:15.023Z,20.49
2022-08-05T22:38:48.170Z,20.64
2022-08-05T22:42:04.611Z,20.71
2022-08-05T22:44:07.996Z,20.75
2022-08-05T22:46:39.635Z,20.84
2022-08-05T22:49:23.347Z,20.85
2022-08-05T22:52:04.740Z,20.88
2022-08-05T22:54:35.997Z,20.90
2022-08-05T22:57:05.795Z,20.92
2022-08-05T22:59:46.443Z,20.88
2022-08-05T23:02:29.176Z,20.84
2022-08-05T23:04:58.317Z,20.58
2022-08-05T23:07:30.509Z,20.51
2022-08-05T23:10:02.072Z,20.59
2022-08-05T23:12:32.366Z,20.62
2022-08-05T23:15:01.462Z,20.57
2022-08-05T23:17:34.328Z,20.51
2022-08-05T23:20:16.472Z,20.53
2022-08-05T23:22:47.290Z,20.41
2022-08-05T23:25:50.073Z,20.45
2022-08-05T23:28:07.173Z,20.40
2022-08-05T23:30:40.034Z,20.39
2022-08-05T23:33:16.172Z,20.46
2022-08-05T23:35:55.100Z,20.43
2022-08-05T23:38:26.066Z,20.30
2022-08-05T23:40:54.910Z,20.33
2022-08-05T23:43:49.656Z,20.32
2022-08-05T23:46:20.852Z,20.37
2022-08-05T23:49:00.490Z,20.39
2022-08-05T23:51:53.515Z,20.31
2022-08-05T23:54:26.074Z,20.17
2022-08-05T23:56:55.456Z,20.06
2022-08-05T23:59:27.847Z,19.98
